Time,TemperatureF,DewpointF,PressureIn,WindDirection,WindDirectionDegrees,WindSpeedMPH,WindSpeedGustMPH,Humidity,HourlyPrecipIn,Conditions,Clouds,dailyrainin,SoftwareType,DateUTC
2013-03-20 00:01:00,30.8,27.1,30.30,North,350,0.0,0.0,86,0.00,,,0.00,WeatherCatV1.10B1784,2013-03-20 05:01:00,
2013-03-20 00:06:00,30.6,26.9,30.30,North,350,0.0,0.0,86,0.00,,,0.00,WeatherCatV1.10B1784,2013-03-20 05:06:00,
2013-03-20 00:11:00,30.4,26.7,30.31,North,350,0.0,0.0,86,0.00,,,0.00,WeatherCatV1.10B1784,2013-03-20 05:11:00,
2013-03-20 00:16:00,30.2,26.5,30.31,North,350,0.0,0.0,86,0.00,,,0.00,WeatherCatV1.10B1784,2013-03-20 05:16:00,
2013-03-20 00:21:00,30.0,26.6,30.31,North,350,0.0,0.0,87,0.00,,,0.00,WeatherCatV1.10B1784,2013-03-20 05:21:00,
2013-03-20 00:26:00,29.7,26.3,30.31,North,350,0.0,0.0,87,0.00,,,0.00,WeatherCatV1.10B1784,2013-03-20 05:26:00,
2013-03-20 00:31:00,29.4,26.3,30.31,North,350,0.0,0.0,88,0.00,,,0.00,WeatherCatV1.10B1784,2013-03-20 05:31:00,
2013-03-20 00:36:00,29.1,26.0,30.31,North,350,0.0,0.0,88,0.00,,,0.00,WeatherCatV1.10B1784,2013-03-20 05:36:00,
2013-03-20 00:41:00,28.9,26.1,30.31,North,350,0.0,0.0,89,0.00,,,0.00,WeatherCatV1.10B1784,2013-03-20 05:41:00,
2013-03-20 00:46:00,28.8,26.2,30.30,North,350,0.0,0.0,90,0.00,,,0.00,WeatherCatV1.10B1784,2013-03-20 05:46:00,
2013-03-20 00:51:00,28.7,26.1,30.30,North,350,0.0,0.0,90,0.00,,,0.00,WeatherCatV1.10B1784,2013-03-20 05:51:00,
2013-03-20 00:56:00,28.6,26.0,30.30,North,350,0.0,0.0,90,0.00,,,0.00,WeatherCatV1.10B1784,2013-03-20 05:56:00,
2013-03-20 01:01:00,28.5,25.9,30.30,North,350,0.0,0.0,90,0.00,,,0.00,WeatherCatV1.10B1784,2013-03-20 06:01:00,
2013-03-20 01:06:00,28.4,25.8,30.30,North,350,0.0,0.0,90,0.00,,,0.00,WeatherCatV1.10B1784,2013-03-20 06:06:00,
2013-03-20 01:11:00,28.3,25.8,30.30,North,350,0.0,0.0,90,0.00,,,0.00,WeatherCatV1.10B1784,2013-03-20 06:11:00,
2013-03-20 01:16:00,28.1,25.6,30.30,North,350,0.0,0.0,90,0.00,,,0.00,WeatherCatV1.10B1784,2013-03-20 06:16:00,
2013-03-20 01:21:00,28.0,25.7,30.30,North,350,0.0,0.0,91,0.00,,,0.00,WeatherCatV1.10B1784,2013-03-20 06:21:00,
2013-03-20 01:26:00,27.9,25.6,30.30,North,350,0.0,0.0,91,0.00,,,0.00,WeatherCatV1.10B1784,2013-03-20 06:26:00,
2013-03-20 01:31:00,27.8,25.5,30.30,North,350,0.0,0.0,91,0.00,,,0.00,WeatherCatV1.10B1784,2013-03-20 06:31:00,
2013-03-20 01:36:00,27.7,25.7,30.30,North,350,0.0,0.0,92,0.00,,,0.00,WeatherCatV1.10B1784,2013-03-20 06:36:00,
2013-03-20 01:41:00,27.6,25.6,30.30,North,350,0.0,0.0,92,0.00,,,0.00,WeatherCatV1.10B1784,2013-03-20 06:41:00,
2013-03-20 01:47:00,27.5,25.2,30.30,North,350,0.0,0.0,91,0.00,,,0.00,WeatherCatV1.10B1784,2013-03-20 06:47:00,
2013-03-20 01:52:00,27.4,25.1,30.30,North,350,0.0,0.0,91,0.00,,,0.00,WeatherCatV1.10B1784,2013-03-20 06:52:00,
2013-03-20 01:57:00,27.2,24.9,30.29,North,350,0.0,0.0,91,0.00,,,0.00,WeatherCatV1.10B1784,2013-03-20 06:57:00,
2013-03-20 02:02:00,27.1,25.1,30.29,North,350,0.0,0.0,92,0.00,,,0.00,WeatherCatV1.10B1784,2013-03-20 07:02:00,
2013-03-20 02:07:00,27.0,25.0,30.29,North,350,0.0,0.0,92,0.00,,,0.00,WeatherCatV1.10B1784,2013-03-20 07:07:00,
2013-03-20 02:12:00,26.9,24.9,30.29,North,350,0.0,0.0,92,0.00,,,0.00,WeatherCatV1.10B1784,2013-03-20 07:12:00,
2013-03-20 02:17:00,26.9,24.9,30.29,North,350,0.0,0.0,92,0.00,,,0.00,WeatherCatV1.10B1784,2013-03-20 07:17:00,
2013-03-20 02:22:00,26.8,24.8,30.29,North,350,0.0,0.0,92,0.00,,,0.00,WeatherCatV1.10B1784,2013-03-20 07:22:00,
2013-03-20 02:27:00,26.7,24.7,30.29,North,350,0.0,0.0,92,0.00,,,0.00,WeatherCatV1.10B1784,2013-03-20 07:27:00,
2013-03-20 02:32:00,26.6,24.6,30.29,North,350,0.0,0.0,92,0.00,,,0.00,WeatherCatV1.10B1784,2013-03-20 07:32:00,
2013-03-20 02:37:00,26.6,24.6,30.29,North,350,0.0,0.0,92,0.00,,,0.00,WeatherCatV1.10B1784,2013-03-20 07:37:00,
2013-03-20 02:42:00,26.4,24.4,30.29,North,350,0.0,0.0,92,0.00,,,0.00,WeatherCatV1.10B1784,2013-03-20 07:42:00,
2013-03-20 02:47:00,26.3,24.3,30.29,North,350,0.0,0.0,92,0.00,,,0.00,WeatherCatV1.10B1784,2013-03-20 07:47:00,
2013-03-20 02:52:00,26.3,24.6,30.29,North,350,0.0,0.0,93,0.00,,,0.00,WeatherCatV1.10B1784,2013-03-20 07:52:00,
2013-03-20 02:57:00,26.2,24.2,30.29,North,350,0.0,0.0,92,0.00,,,0.00,WeatherCatV1.10B1784,2013-03-20 07:57:00,
2013-03-20 03:03:00,26.1,24.1,30.29,North,350,0.0,0.0,92,0.00,,,0.00,WeatherCatV1.10B1784,2013-03-20 08:03:00,
2013-03-20 03:08:00,26.0,24.0,30.29,North,350,0.0,0.0,92,0.00,,,0.00,WeatherCatV1.10B1784,2013-03-20 08:08:00,
2013-03-20 03:13:00,25.9,23.9,30.29,North,350,0.0,0.0,92,0.00,,,0.00,WeatherCatV1.10B1784,2013-03-20 08:13:00,
2013-03-20 03:18:00,25.8,24.1,30.29,North,350,0.0,0.0,93,0.00,,,0.00,WeatherCatV1.10B1784,2013-03-20 08:18:00,
2013-03-20 03:23:00,25.8,24.1,30.29,North,350,0.0,0.0,93,0.00,,,0.00,WeatherCatV1.10B1784,2013-03-20 08:23:00,
2013-03-20 03:28:00,25.7,24.0,30.29,North,350,0.0,0.0,93,0.00,,,0.00,WeatherCatV1.10B1784,2013-03-20 08:28:00,
2013-03-20 03:33:00,25.6,23.9,30.29,North,350,0.0,0.0,93,0.00,,,0.00,WeatherCatV1.10B1784,2013-03-20 08:33:00,
2013-03-20 03:38:00,25.6,23.9,30.29,North,350,0.0,0.0,93,0.00,,,0.00,WeatherCatV1.10B1784,2013-03-20 08:38:00,
2013-03-20 03:43:00,25.4,23.7,30.29,North,350,0.0,0.0,93,0.00,,,0.00,WeatherCatV1.10B1784,2013-03-20 08:43:00,
2013-03-20 03:48:00,25.3,23.6,30.28,North,350,0.0,0.0,93,0.00,,,0.00,WeatherCatV1.10B1784,2013-03-20 08:48:00,
2013-03-20 03:53:00,25.2,23.5,30.29,North,350,0.0,0.0,93,0.00,,,0.00,WeatherCatV1.10B1784,2013-03-20 08:53:00,
2013-03-20 03:58:00,25.1,23.1,30.29,North,350,0.0,0.0,92,0.00,,,0.00,WeatherCatV1.10B1784,2013-03-20 08:58:00,
2013-03-20 04:03:00,25.0,23.3,30.29,North,350,0.0,0.0,93,0.00,,,0.00,WeatherCatV1.10B1784,2013-03-20 09:03:00,
2013-03-20 04:08:00,24.9,23.2,30.29,North,350,0.0,0.0,93,0.00,,,0.00,WeatherCatV1.10B1784,2013-03-20 09:08:00,
2013-03-20 04:13:00,24.9,23.2,30.29,North,350,0.0,0.0,93,0.00,,,0.00,WeatherCatV1.10B1784,2013-03-20 09:13:00,
2013-03-20 04:18:00,24.9,23.2,30.29,North,350,0.0,0.0,93,0.00,,,0.00,WeatherCatV1.10B1784,2013-03-20 09:18:00,
2013-03-20 04:23:00,24.8,23.1,30.28,North,350,0.0,0.0,93,0.00,,,0.00,WeatherCatV1.10B1784,2013-03-20 09:23:00,
2013-03-20 04:28:00,24.8,23.1,30.28,North,350,0.0,0.0,93,0.00,,,0.00,WeatherCatV1.10B1784,2013-03-20 09:28:00,
2013-03-20 04:33:00,24.7,23.0,30.29,North,350,0.0,0.0,93,0.00,,,0.00,WeatherCatV1.10B1784,2013-03-20 09:33:00,
2013-03-20 04:38:00,24.7,23.2,30.28,North,350,0.0,0.0,94,0.00,,,0.00,WeatherCatV1.10B1784,2013-03-20 09:38:00,
2013-03-20 04:43:00,24.7,23.2,30.28,North,350,0.0,0.0,94,0.00,,,0.00,WeatherCatV1.10B1784,2013-03-20 09:43:00,
2013-03-20 04:48:00,24.6,23.1,30.28,North,350,0.0,0.0,94,0.00,,,0.00,WeatherCatV1.10B1784,2013-03-20 09:48:00,
2013-03-20 04:53:00,24.6,23.1,30.28,North,350,0.0,0.0,94,0.00,,,0.00,WeatherCatV1.10B1784,2013-03-20 09:53:00,
2013-03-20 04:58:00,24.5,23.0,30.28,North,350,0.0,0.0,94,0.00,,,0.00,WeatherCatV1.10B1784,2013-03-20 09:58:00,
2013-03-20 05:03:00,24.5,23.0,30.29,North,350,0.0,0.0,94,0.00,,,0.00,WeatherCatV1.10B1784,2013-03-20 10:03:00,
2013-03-20 05:08:00,24.5,23.0,30.29,North,350,0.0,0.0,94,0.00,,,0.00,WeatherCatV1.10B1784,2013-03-20 10:08:00,
2013-03-20 05:13:00,24.5,23.0,30.29,North,350,0.0,0.0,94,0.00,,,0.00,WeatherCatV1.10B1784,2013-03-20 10:13:00,
2013-03-20 05:18:00,24.4,22.9,30.30,North,350,0.0,0.0,94,0.00,,,0.00,WeatherCatV1.10B1784,2013-03-20 10:18:00,
2013-03-20 05:23:00,24.4,22.9,30.30,North,350,0.0,0.0,94,0.00,,,0.00,WeatherCatV1.10B1784,2013-03-20 10:23:00,
2013-03-20 05:28:00,24.4,22.9,30.30,North,350,0.0,0.0,94,0.00,,,0.00,WeatherCatV1.10B1784,2013-03-20 10:28:00,
2013-03-20 05:33:00,24.5,23.0,30.30,North,350,0.0,0.0,94,0.00,,,0.00,WeatherCatV1.10B1784,2013-03-20 10:33:00,
2013-03-20 05:38:00,24.6,23.1,30.30,North,350,0.0,0.0,94,0.00,,,0.00,WeatherCatV1.10B1784,2013-03-20 10:38:00,
2013-03-20 05:43:00,24.6,23.4,30.31,North,350,0.0,0.0,95,0.00,,,0.00,WeatherCatV1.10B1784,2013-03-20 10:43:00,
2013-03-20 05:48:00,24.7,23.5,30.31,North,350,0.0,0.0,95,0.00,,,0.00,WeatherCatV1.10B1784,2013-03-20 10:48:00,
2013-03-20 05:53:00,24.8,23.6,30.31,North,350,1.0,1.0,95,0.00,,,0.00,WeatherCatV1.10B1784,2013-03-20 10:53:00,
2013-03-20 05:58:00,25.0,23.8,30.31,North,350,2.0,2.0,95,0.00,,,0.00,WeatherCatV1.10B1784,2013-03-20 10:58:00,
2013-03-20 06:03:00,25.4,24.2,30.31,North,350,1.0,1.0,95,0.00,,,0.00,WeatherCatV1.10B1784,2013-03-20 11:03:00,
2013-03-20 06:08:00,26.1,25.1,30.31,NNW,342,2.0,5.0,96,0.00,,,0.00,WeatherCatV1.10B1784,2013-03-20 11:08:00,
2013-03-20 06:13:00,27.8,26.8,30.31,NW,313,1.0,2.0,96,0.00,,,0.00,WeatherCatV1.10B1784,2013-03-20 11:13:00,
2013-03-20 06:18:00,28.3,27.6,30.31,NW,309,2.0,5.0,97,0.00,,,0.00,WeatherCatV1.10B1784,2013-03-20 11:18:00,
2013-03-20 06:23:00,28.7,27.7,30.32,NW,309,1.0,2.0,96,0.00,,,0.00,WeatherCatV1.10B1784,2013-03-20 11:23:00,
2013-03-20 06:28:00,29.1,28.4,30.32,NNW,332,1.0,3.0,97,0.00,,,0.00,WeatherCatV1.10B1784,2013-03-20 11:28:00,
2013-03-20 06:33:00,29.3,28.3,30.32,NNW,336,0.0,3.0,96,0.00,,,0.00,WeatherCatV1.10B1784,2013-03-20 11:33:00,
2013-03-20 06:38:00,29.7,29.0,30.32,WNW,300,2.0,5.0,97,0.00,,,0.00,WeatherCatV1.10B1784,2013-03-20 11:38:00,
2013-03-20 06:43:00,30.1,29.4,30.33,WNW,294,3.0,3.0,97,0.00,,,0.00,WeatherCatV1.10B1784,2013-03-20 11:43:00,
2013-03-20 06:48:00,30.7,30.0,30.33,WNW,289,4.0,7.0,97,0.00,,,0.00,WeatherCatV1.10B1784,2013-03-20 11:48:00,
2013-03-20 06:53:00,31.4,30.6,30.33,NW,313,5.0,11.0,97,0.00,,,0.00,WeatherCatV1.10B1784,2013-03-20 11:53:00,
2013-03-20 06:58:00,32.0,31.2,30.33,North,349,10.0,10.0,97,0.00,,,0.00,WeatherCatV1.10B1784,2013-03-20 11:58:00,
2013-03-20 07:03:00,32.4,31.6,30.33,NNW,336,5.0,11.0,97,0.00,,,0.00,WeatherCatV1.10B1784,2013-03-20 12:03:00,
2013-03-20 07:08:00,32.7,31.9,30.33,NW,319,6.0,11.0,97,0.00,,,0.00,WeatherCatV1.10B1784,2013-03-20 12:08:00,
2013-03-20 07:13:00,32.8,32.0,30.33,WNW,292,7.0,10.0,97,0.00,,,0.00,WeatherCatV1.10B1784,2013-03-20 12:13:00,
2013-03-20 07:18:00,33.0,32.2,30.34,NNW,328,7.0,17.0,97,0.00,,,0.00,WeatherCatV1.10B1784,2013-03-20 12:18:00,
2013-03-20 07:23:00,33.1,32.1,30.34,NNW,332,9.0,15.0,96,0.00,,,0.00,WeatherCatV1.10B1784,2013-03-20 12:23:00,
2013-03-20 07:28:00,33.0,32.0,30.35,NNW,337,12.0,18.0,96,0.00,,,0.00,WeatherCatV1.10B1784,2013-03-20 12:28:00,
2013-03-20 07:33:00,32.9,31.6,30.34,NNW,340,4.0,15.0,95,0.00,,,0.00,WeatherCatV1.10B1784,2013-03-20 12:33:00,
2013-03-20 07:38:00,32.9,31.4,30.35,North,350,10.0,13.0,94,0.00,,,0.00,WeatherCatV1.10B1784,2013-03-20 12:38:00,
2013-03-20 07:43:00,32.9,31.4,30.36,NNW,341,10.0,13.0,94,0.00,,,0.00,WeatherCatV1.10B1784,2013-03-20 12:43:00,
2013-03-20 07:48:00,32.9,31.4,30.36,North,0,9.0,11.0,94,0.00,,,0.00,WeatherCatV1.10B1784,2013-03-20 12:48:00,
2013-03-20 07:53:00,33.0,31.2,30.36,NNW,338,8.0,12.0,93,0.00,,,0.00,WeatherCatV1.10B1784,2013-03-20 12:53:00,
2013-03-20 07:58:00,33.0,31.2,30.36,North,355,9.0,13.0,93,0.00,,,0.00,WeatherCatV1.10B1784,2013-03-20 12:58:00,
2013-03-20 08:03:00,33.0,30.9,30.37,North,355,6.0,13.0,92,0.00,,,0.00,WeatherCatV1.10B1784,2013-03-20 13:03:00,
2013-03-20 08:08:00,33.0,30.9,30.37,NW,324,11.0,13.0,92,0.00,,,0.00,WeatherCatV1.10B1784,2013-03-20 13:08:00,
2013-03-20 08:13:00,32.9,30.6,30.38,NNW,327,9.0,10.0,91,0.00,,,0.00,WeatherCatV1.10B1784,2013-03-20 13:13:00,
2013-03-20 08:18:00,32.9,30.6,30.38,NW,309,9.0,13.0,91,0.00,,,0.00,WeatherCatV1.10B1784,2013-03-20 13:18:00,
2013-03-20 08:23:00,33.0,30.7,30.38,North,355,11.0,12.0,91,0.00,,,0.00,WeatherCatV1.10B1784,2013-03-20 13:23:00,
2013-03-20 08:28:00,32.9,30.3,30.38,NW,323,14.0,15.0,90,0.00,,,0.00,WeatherCatV1.10B1784,2013-03-20 13:28:00,
2013-03-20 08:33:00,32.8,28.8,30.39,North,9,10.0,19.0,85,0.00,,,0.00,WeatherCatV1.10B1784,2013-03-20 13:33:00,
2013-03-20 08:38:00,32.9,28.9,30.39,NNW,338,9.0,16.0,85,0.00,,,0.00,WeatherCatV1.10B1784,2013-03-20 13:38:00,
2013-03-20 08:43:00,32.8,28.5,30.38,North,355,9.0,18.0,84,0.00,,,0.00,WeatherCatV1.10B1784,2013-03-20 13:43:00,
2013-03-20 08:48:00,32.8,28.2,30.39,NW,320,8.0,13.0,83,0.00,,,0.00,WeatherCatV1.10B1784,2013-03-20 13:48:00,
2013-03-20 08:53:00,32.9,26.8,30.39,North,350,9.0,14.0,78,0.00,,,0.00,WeatherCatV1.10B1784,2013-03-20 13:53:00,
2013-03-20 08:58:00,33.2,26.5,30.39,North,0,10.0,17.0,76,0.00,,,0.00,WeatherCatV1.10B1784,2013-03-20 13:58:00,
2013-03-20 09:03:00,33.3,25.9,30.39,North,355,12.0,18.0,74,0.00,,,0.00,WeatherCatV1.10B1784,2013-03-20 14:03:00,
2013-03-20 09:08:00,33.8,27.1,30.39,NW,314,10.0,15.0,76,0.00,,,0.00,WeatherCatV1.10B1784,2013-03-20 14:08:00,
2013-03-20 09:13:00,33.8,25.7,30.40,NNW,336,12.0,14.0,72,0.00,,,0.00,WeatherCatV1.10B1784,2013-03-20 14:13:00,
2013-03-20 09:18:00,33.6,25.2,30.39,NNW,341,10.0,16.0,71,0.00,,,0.00,WeatherCatV1.10B1784,2013-03-20 14:18:00,
2013-03-20 09:23:00,33.4,24.7,30.39,North,0,7.0,12.0,70,0.00,,,0.00,WeatherCatV1.10B1784,2013-03-20 14:23:00,
2013-03-20 09:28:00,33.5,25.1,30.39,NNW,348,6.0,16.0,71,0.00,,,0.00,WeatherCatV1.10B1784,2013-03-20 14:28:00,
2013-03-20 09:33:00,34.0,26.9,30.39,NNW,331,7.0,9.0,75,0.00,,,0.00,WeatherCatV1.10B1784,2013-03-20 14:33:00,
2013-03-20 09:38:00,34.4,25.6,30.39,NNW,342,12.0,12.0,70,0.00,,,0.00,WeatherCatV1.10B1784,2013-03-20 14:38:00,
2013-03-20 09:43:00,34.3,24.9,30.39,NW,316,5.0,10.0,68,0.00,,,0.00,WeatherCatV1.10B1784,2013-03-20 14:43:00,
2013-03-20 09:48:00,34.5,26.1,30.39,NNW,332,5.0,8.0,71,0.00,,,0.00,WeatherCatV1.10B1784,2013-03-20 14:48:00,
2013-03-20 09:53:00,35.0,26.2,30.39,NW,320,7.0,8.0,70,0.00,,,0.00,WeatherCatV1.10B1784,2013-03-20 14:53:00,
2013-03-20 09:58:00,35.3,26.2,30.39,NW,319,6.0,10.0,69,0.00,,,0.00,WeatherCatV1.10B1784,2013-03-20 14:58:00,
2013-03-20 10:03:00,35.7,26.2,30.39,NW,304,3.0,9.0,68,0.00,,,0.00,WeatherCatV1.10B1784,2013-03-20 15:03:00,
2013-03-20 10:08:00,36.1,27.3,30.38,West,269,3.0,7.0,70,0.00,,,0.00,WeatherCatV1.10B1784,2013-03-20 15:08:00,
2013-03-20 10:13:00,36.4,24.3,30.39,North,355,3.0,11.0,61,0.00,,,0.00,WeatherCatV1.10B1784,2013-03-20 15:13:00,
2013-03-20 10:18:00,36.4,21.8,30.40,NW,317,11.0,13.0,55,0.00,,,0.00,WeatherCatV1.10B1784,2013-03-20 15:18:00,
2013-03-20 10:23:00,36.3,20.8,30.40,NNW,342,14.0,16.0,53,0.00,,,0.00,WeatherCatV1.10B1784,2013-03-20 15:23:00,
2013-03-20 10:28:00,35.9,18.6,30.40,NNW,329,14.0,16.0,49,0.00,,,0.00,WeatherCatV1.10B1784,2013-03-20 15:28:00,
2013-03-20 10:33:00,35.6,19.3,30.39,NNW,345,10.0,15.0,51,0.00,,,0.00,WeatherCatV1.10B1784,2013-03-20 15:33:00,
2013-03-20 10:38:00,35.6,20.2,30.39,North,355,6.0,10.0,53,0.00,,,0.00,WeatherCatV1.10B1784,2013-03-20 15:38:00,
2013-03-20 10:43:00,35.9,19.6,30.39,NNW,331,6.0,12.0,51,0.00,,,0.00,WeatherCatV1.10B1784,2013-03-20 15:43:00,
2013-03-20 10:48:00,36.4,20.9,30.39,NW,325,12.0,12.0,53,0.00,,,0.00,WeatherCatV1.10B1784,2013-03-20 15:48:00,
2013-03-20 10:53:00,37.0,20.1,30.39,North,0,10.0,16.0,50,0.00,,,0.00,WeatherCatV1.10B1784,2013-03-20 15:53:00,
2013-03-20 10:58:00,37.4,19.5,30.39,North,5,6.0,14.0,48,0.00,,,0.00,WeatherCatV1.10B1784,2013-03-20 15:58:00,
2013-03-20 11:03:00,37.3,19.9,30.39,NW,313,10.0,13.0,49,0.00,,,0.00,WeatherCatV1.10B1784,2013-03-20 16:03:00,
2013-03-20 11:08:00,37.5,20.6,30.39,NNW,328,12.0,13.0,50,0.00,,,0.00,WeatherCatV1.10B1784,2013-03-20 16:08:00,
2013-03-20 11:13:00,37.7,19.3,30.39,NNW,327,9.0,14.0,47,0.00,,,0.00,WeatherCatV1.10B1784,2013-03-20 16:13:00,
2013-03-20 11:18:00,37.7,19.3,30.38,NNW,332,10.0,15.0,47,0.00,,,0.00,WeatherCatV1.10B1784,2013-03-20 16:18:00,
2013-03-20 11:23:00,37.9,18.5,30.38,WNW,302,6.0,14.0,45,0.00,,,0.00,WeatherCatV1.10B1784,2013-03-20 16:23:00,
2013-03-20 11:28:00,38.3,19.4,30.38,WNW,295,4.0,14.0,46,0.00,,,0.00,WeatherCatV1.10B1784,2013-03-20 16:28:00,
2013-03-20 11:33:00,39.3,19.2,30.38,NW,315,14.0,17.0,44,0.00,,,0.00,WeatherCatV1.10B1784,2013-03-20 16:33:00,
2013-03-20 11:38:00,39.4,16.5,30.38,NNW,341,10.0,15.0,39,0.00,,,0.00,WeatherCatV1.10B1784,2013-03-20 16:38:00,
2013-03-20 11:43:00,39.0,18.4,30.38,WNW,289,8.0,16.0,43,0.00,,,0.00,WeatherCatV1.10B1784,2013-03-20 16:43:00,
2013-03-20 11:48:00,39.1,18.0,30.38,NW,311,8.0,16.0,42,0.00,,,0.00,WeatherCatV1.10B1784,2013-03-20 16:48:00,
2013-03-20 11:53:00,39.7,20.6,30.38,West,272,7.0,14.0,46,0.00,,,0.00,WeatherCatV1.10B1784,2013-03-20 16:53:00,
2013-03-20 11:58:00,39.8,17.5,30.38,NNW,332,6.0,21.0,40,0.00,,,0.00,WeatherCatV1.10B1784,2013-03-20 16:58:00,
2013-03-20 12:03:00,40.0,18.2,30.38,NNW,345,9.0,14.0,41,0.00,,,0.00,WeatherCatV1.10B1784,2013-03-20 17:03:00,
2013-03-20 12:08:00,40.0,20.4,30.37,NW,325,10.0,12.0,45,0.00,,,0.00,WeatherCatV1.10B1784,2013-03-20 17:08:00,
2013-03-20 12:13:00,40.4,20.8,30.37,NW,324,8.0,10.0,45,0.00,,,0.00,WeatherCatV1.10B1784,2013-03-20 17:13:00,
2013-03-20 12:18:00,40.7,20.0,30.37,WNW,296,8.0,12.0,43,0.00,,,0.00,WeatherCatV1.10B1784,2013-03-20 17:18:00,
2013-03-20 12:23:00,40.8,20.6,30.37,NW,306,11.0,12.0,44,0.00,,,0.00,WeatherCatV1.10B1784,2013-03-20 17:23:00,
2013-03-20 12:28:00,41.2,18.1,30.36,NW,310,10.0,10.0,39,0.00,,,0.00,WeatherCatV1.10B1784,2013-03-20 17:28:00,
2013-03-20 12:33:00,41.5,15.2,30.37,NNW,333,7.0,19.0,34,0.00,,,0.00,WeatherCatV1.10B1784,2013-03-20 17:33:00,
2013-03-20 12:38:00,41.0,14.8,30.36,NW,310,13.0,15.0,34,0.00,,,0.00,WeatherCatV1.10B1784,2013-03-20 17:38:00,
2013-03-20 12:43:00,40.6,14.5,30.36,NNW,343,8.0,17.0,34,0.00,,,0.00,WeatherCatV1.10B1784,2013-03-20 17:43:00,
2013-03-20 12:48:00,40.8,14.6,30.36,NW,317,9.0,17.0,34,0.00,,,0.00,WeatherCatV1.10B1784,2013-03-20 17:48:00,
2013-03-20 12:53:00,40.9,15.4,30.36,NNW,336,12.0,16.0,35,0.00,,,0.00,WeatherCatV1.10B1784,2013-03-20 17:53:00,
2013-03-20 12:58:00,40.9,16.0,30.36,NNW,348,8.0,12.0,36,0.00,,,0.00,WeatherCatV1.10B1784,2013-03-20 17:58:00,
2013-03-20 13:03:00,41.1,14.9,30.36,NNW,328,12.0,17.0,34,0.00,,,0.00,WeatherCatV1.10B1784,2013-03-20 18:03:00,
2013-03-20 13:08:00,41.5,17.8,30.35,WNW,288,6.0,11.0,38,0.00,,,0.00,WeatherCatV1.10B1784,2013-03-20 18:08:00,
2013-03-20 13:13:00,42.2,17.2,30.35,NW,306,14.0,14.0,36,0.00,,,0.00,WeatherCatV1.10B1784,2013-03-20 18:13:00,
2013-03-20 13:18:00,42.5,16.8,30.35,West,273,4.0,17.0,35,0.00,,,0.00,WeatherCatV1.10B1784,2013-03-20 18:18:00,
2013-03-20 13:23:00,42.5,16.1,30.35,WSW,255,5.0,22.0,34,0.00,,,0.00,WeatherCatV1.10B1784,2013-03-20 18:23:00,
2013-03-20 13:28:00,42.3,16.0,30.34,West,268,4.0,19.0,34,0.00,,,0.00,WeatherCatV1.10B1784,2013-03-20 18:28:00,
2013-03-20 13:33:00,42.1,17.7,30.34,NNW,335,10.0,20.0,37,0.00,,,0.00,WeatherCatV1.10B1784,2013-03-20 18:33:00,
2013-03-20 13:38:00,42.2,17.2,30.34,North,350,12.0,17.0,36,0.00,,,0.00,WeatherCatV1.10B1784,2013-03-20 18:38:00,
2013-03-20 13:43:00,42.2,16.5,30.33,NNW,327,8.0,16.0,35,0.00,,,0.00,WeatherCatV1.10B1784,2013-03-20 18:43:00,
2013-03-20 13:48:00,42.6,17.5,30.33,West,278,7.0,17.0,36,0.00,,,0.00,WeatherCatV1.10B1784,2013-03-20 18:48:00,
2013-03-20 13:53:00,42.7,16.3,30.33,NNW,338,11.0,14.0,34,0.00,,,0.00,WeatherCatV1.10B1784,2013-03-20 18:53:00,
2013-03-20 13:58:00,43.0,17.9,30.33,WNW,290,6.0,15.0,36,0.00,,,0.00,WeatherCatV1.10B1784,2013-03-20 18:58:00,
2013-03-20 14:03:00,43.4,14.8,30.32,West,271,14.0,15.0,31,0.00,,,0.00,WeatherCatV1.10B1784,2013-03-20 19:03:00,
2013-03-20 14:08:00,43.6,15.0,30.32,NW,304,7.0,21.0,31,0.00,,,0.00,WeatherCatV1.10B1784,2013-03-20 19:08:00,
2013-03-20 14:13:00,43.6,14.2,30.32,WNW,302,11.0,19.0,30,0.00,,,0.00,WeatherCatV1.10B1784,2013-03-20 19:13:00,
2013-03-20 14:18:00,43.1,11.4,30.31,NW,326,7.0,19.0,27,0.00,,,0.00,WeatherCatV1.10B1784,2013-03-20 19:18:00,
2013-03-20 14:23:00,43.3,15.4,30.31,NW,321,6.0,11.0,32,0.00,,,0.00,WeatherCatV1.10B1784,2013-03-20 19:23:00,
2013-03-20 14:28:00,43.3,13.2,30.31,NNW,334,8.0,15.0,29,0.00,,,0.00,WeatherCatV1.10B1784,2013-03-20 19:28:00,
2013-03-20 14:33:00,42.5,12.5,30.31,WNW,302,4.0,17.0,29,0.00,,,0.00,WeatherCatV1.10B1784,2013-03-20 19:33:00,
2013-03-20 14:38:00,42.6,13.4,30.30,NW,322,11.0,16.0,30,0.00,,,0.00,WeatherCatV1.10B1784,2013-03-20 19:38:00,
2013-03-20 14:43:00,42.8,15.0,30.30,NW,317,9.0,12.0,32,0.00,,,0.00,WeatherCatV1.10B1784,2013-03-20 19:43:00,
2013-03-20 14:48:00,43.1,16.0,30.29,NNW,336,11.0,16.0,33,0.00,,,0.00,WeatherCatV1.10B1784,2013-03-20 19:48:00,
2013-03-20 14:53:00,43.1,16.7,30.29,NW,309,6.0,15.0,34,0.00,,,0.00,WeatherCatV1.10B1784,2013-03-20 19:53:00,
2013-03-20 14:58:00,43.3,16.8,30.29,West,264,6.0,15.0,34,0.00,,,0.00,WeatherCatV1.10B1784,2013-03-20 19:58:00,
2013-03-20 15:03:00,43.7,15.8,30.28,WNW,293,9.0,14.0,32,0.00,,,0.00,WeatherCatV1.10B1784,2013-03-20 20:03:00,
2013-03-20 15:08:00,43.5,16.3,30.28,NNW,331,11.0,18.0,33,0.00,,,0.00,WeatherCatV1.10B1784,2013-03-20 20:08:00,
2013-03-20 15:13:00,43.4,17.6,30.28,NNW,331,13.0,16.0,35,0.00,,,0.00,WeatherCatV1.10B1784,2013-03-20 20:13:00,
2013-03-20 15:18:00,43.7,16.5,30.27,NNW,346,10.0,16.0,33,0.00,,,0.00,WeatherCatV1.10B1784,2013-03-20 20:18:00,
2013-03-20 15:23:00,43.8,16.6,30.27,West,259,6.0,17.0,33,0.00,,,0.00,WeatherCatV1.10B1784,2013-03-20 20:23:00,
2013-03-20 15:28:00,44.1,14.7,30.27,WNW,291,12.0,13.0,30,0.00,,,0.00,WeatherCatV1.10B1784,2013-03-20 20:28:00,
2013-03-20 15:33:00,43.9,15.2,30.27,North,5,16.0,17.0,31,0.00,,,0.00,WeatherCatV1.10B1784,2013-03-20 20:33:00,
2013-03-20 15:38:00,43.9,15.2,30.27,NW,313,12.0,20.0,31,0.00,,,0.00,WeatherCatV1.10B1784,2013-03-20 20:38:00,
2013-03-20 15:43:00,43.8,15.9,30.27,NNW,329,10.0,15.0,32,0.00,,,0.00,WeatherCatV1.10B1784,2013-03-20 20:43:00,
2013-03-20 15:48:00,43.8,15.2,30.26,NNW,345,11.0,15.0,31,0.00,,,0.00,WeatherCatV1.10B1784,2013-03-20 20:48:00,
2013-03-20 15:53:00,43.3,12.4,30.26,NW,323,9.0,13.0,28,0.00,,,0.00,WeatherCatV1.10B1784,2013-03-20 20:53:00,
2013-03-20 15:58:00,43.0,15.2,30.26,NW,322,12.0,21.0,32,0.00,,,0.00,WeatherCatV1.10B1784,2013-03-20 20:58:00,
2013-03-20 16:03:00,42.9,13.6,30.26,NNW,342,9.0,15.0,30,0.00,,,0.00,WeatherCatV1.10B1784,2013-03-20 21:03:00,
2013-03-20 16:08:00,42.6,14.1,30.26,NNW,346,12.0,21.0,31,0.00,,,0.00,WeatherCatV1.10B1784,2013-03-20 21:08:00,
2013-03-20 16:13:00,42.4,13.9,30.26,NNW,328,6.0,10.0,31,0.00,,,0.00,WeatherCatV1.10B1784,2013-03-20 21:13:00,
2013-03-20 16:18:00,42.5,13.3,30.25,WNW,284,13.0,21.0,30,0.00,,,0.00,WeatherCatV1.10B1784,2013-03-20 21:18:00,
2013-03-20 16:23:00,42.6,14.1,30.25,WNW,302,10.0,12.0,31,0.00,,,0.00,WeatherCatV1.10B1784,2013-03-20 21:23:00,
2013-03-20 16:28:00,42.7,14.9,30.25,West,259,8.0,8.0,32,0.00,,,0.00,WeatherCatV1.10B1784,2013-03-20 21:28:00,
2013-03-20 16:33:00,43.1,14.5,30.25,North,355,11.0,18.0,31,0.00,,,0.00,WeatherCatV1.10B1784,2013-03-20 21:33:00,
2013-03-20 16:38:00,43.0,16.6,30.24,NNW,337,8.0,12.0,34,0.00,,,0.00,WeatherCatV1.10B1784,2013-03-20 21:38:00,
2013-03-20 16:43:00,42.9,14.4,30.24,NNW,344,9.0,19.0,31,0.00,,,0.00,WeatherCatV1.10B1784,2013-03-20 21:43:00,
2013-03-20 16:48:00,42.5,13.3,30.24,North,0,14.0,21.0,30,0.00,,,0.00,WeatherCatV1.10B1784,2013-03-20 21:48:00,
2013-03-20 16:53:00,41.9,13.5,30.24,North,10,7.0,10.0,31,0.00,,,0.00,WeatherCatV1.10B1784,2013-03-20 21:53:00,
2013-03-20 16:58:00,42.0,14.3,30.24,WNW,296,9.0,11.0,32,0.00,,,0.00,WeatherCatV1.10B1784,2013-03-20 21:58:00,
2013-03-20 17:03:00,42.1,15.8,30.24,NNW,336,10.0,10.0,34,0.00,,,0.00,WeatherCatV1.10B1784,2013-03-20 22:03:00,
2013-03-20 17:08:00,42.1,12.9,30.24,NNW,345,8.0,17.0,30,0.00,,,0.00,WeatherCatV1.10B1784,2013-03-20 22:08:00,
2013-03-20 17:13:00,42.1,13.7,30.24,West,278,3.0,14.0,31,0.00,,,0.00,WeatherCatV1.10B1784,2013-03-20 22:13:00,
2013-03-20 17:18:00,42.0,13.6,30.24,NW,304,8.0,13.0,31,0.00,,,0.00,WeatherCatV1.10B1784,2013-03-20 22:18:00,
2013-03-20 17:23:00,42.0,14.3,30.24,NW,308,9.0,10.0,32,0.00,,,0.00,WeatherCatV1.10B1784,2013-03-20 22:23:00,
2013-03-20 17:28:00,42.1,12.9,30.24,West,271,3.0,9.0,30,0.00,,,0.00,WeatherCatV1.10B1784,2013-03-20 22:28:00,
2013-03-20 17:33:00,42.1,13.7,30.24,NW,312,6.0,6.0,31,0.00,,,0.00,WeatherCatV1.10B1784,2013-03-20 22:33:00,
2013-03-20 17:38:00,42.0,13.6,30.24,NW,318,9.0,11.0,31,0.00,,,0.00,WeatherCatV1.10B1784,2013-03-20 22:38:00,
2013-03-20 17:43:00,41.8,12.7,30.24,West,279,8.0,14.0,30,0.00,,,0.00,WeatherCatV1.10B1784,2013-03-20 22:43:00,
2013-03-20 17:48:00,41.5,13.9,30.24,NW,306,10.0,14.0,32,0.00,,,0.00,WeatherCatV1.10B1784,2013-03-20 22:48:00,
2013-03-20 17:53:00,41.1,12.1,30.23,WNW,286,12.0,14.0,30,0.00,,,0.00,WeatherCatV1.10B1784,2013-03-20 22:53:00,
2013-03-20 17:58:00,40.6,11.6,30.23,NW,323,12.0,13.0,30,0.00,,,0.00,WeatherCatV1.10B1784,2013-03-20 22:58:00,
2013-03-20 18:03:00,40.2,12.0,30.23,NNW,348,15.0,16.0,31,0.00,,,0.00,WeatherCatV1.10B1784,2013-03-20 23:03:00,
2013-03-20 18:08:00,39.9,12.5,30.23,NW,309,13.0,13.0,32,0.00,,,0.00,WeatherCatV1.10B1784,2013-03-20 23:08:00,
2013-03-20 18:13:00,39.6,12.9,30.23,NW,307,9.0,15.0,33,0.00,,,0.00,WeatherCatV1.10B1784,2013-03-20 23:13:00,
2013-03-20 18:18:00,39.5,12.8,30.23,WNW,300,6.0,11.0,33,0.00,,,0.00,WeatherCatV1.10B1784,2013-03-20 23:18:00,
2013-03-20 18:23:00,39.3,13.3,30.23,NNW,331,6.0,8.0,34,0.00,,,0.00,WeatherCatV1.10B1784,2013-03-20 23:23:00,
2013-03-20 18:28:00,39.1,13.1,30.23,WNW,296,6.0,11.0,34,0.00,,,0.00,WeatherCatV1.10B1784,2013-03-20 23:28:00,
2013-03-20 18:33:00,38.8,12.9,30.23,West,272,6.0,9.0,34,0.00,,,0.00,WeatherCatV1.10B1784,2013-03-20 23:33:00,
2013-03-20 18:38:00,38.4,12.5,30.23,West,259,7.0,14.0,34,0.00,,,0.00,WeatherCatV1.10B1784,2013-03-20 23:38:00,
2013-03-20 18:43:00,38.0,11.5,30.23,WNW,298,7.0,10.0,33,0.00,,,0.00,WeatherCatV1.10B1784,2013-03-20 23:43:00,
2013-03-20 18:48:00,37.7,11.9,30.23,WNW,293,6.0,9.0,34,0.00,,,0.00,WeatherCatV1.10B1784,2013-03-20 23:48:00,
2013-03-20 18:53:00,37.3,12.2,30.23,NNW,327,5.0,11.0,35,0.00,,,0.00,WeatherCatV1.10B1784,2013-03-20 23:53:00,
2013-03-20 18:58:00,36.9,12.5,30.22,NW,317,8.0,13.0,36,0.00,,,0.00,WeatherCatV1.10B1784,2013-03-20 23:58:00,
2013-03-20 19:03:00,36.6,11.6,30.22,WNW,285,7.0,16.0,35,0.00,,,0.00,WeatherCatV1.10B1784,2013-03-21 00:03:00,
2013-03-20 19:08:00,36.4,12.0,30.22,WNW,302,4.0,10.0,36,0.00,,,0.00,WeatherCatV1.10B1784,2013-03-21 00:08:00,
2013-03-20 19:13:00,36.1,12.4,30.22,NW,311,3.0,5.0,37,0.00,,,0.00,WeatherCatV1.10B1784,2013-03-21 00:13:00,
2013-03-20 19:18:00,35.8,12.1,30.22,NNW,331,6.0,11.0,37,0.00,,,0.00,WeatherCatV1.10B1784,2013-03-21 00:18:00,
2013-03-20 19:23:00,35.6,12.5,30.21,NW,307,2.0,5.0,38,0.00,,,0.00,WeatherCatV1.10B1784,2013-03-21 00:23:00,
2013-03-20 19:28:00,35.3,12.3,30.21,NW,320,4.0,7.0,38,0.00,,,0.00,WeatherCatV1.10B1784,2013-03-21 00:28:00,
2013-03-20 19:33:00,35.0,12.0,30.21,NW,311,4.0,8.0,38,0.00,,,0.00,WeatherCatV1.10B1784,2013-03-21 00:33:00,
2013-03-20 19:38:00,34.8,13.0,30.21,WNW,286,0.0,3.0,40,0.00,,,0.00,WeatherCatV1.10B1784,2013-03-21 00:38:00,
2013-03-20 19:43:00,34.6,12.8,30.21,NW,309,3.0,6.0,40,0.00,,,0.00,WeatherCatV1.10B1784,2013-03-21 00:43:00,
2013-03-20 19:48:00,34.3,12.5,30.21,NNW,337,3.0,8.0,40,0.00,,,0.00,WeatherCatV1.10B1784,2013-03-21 00:48:00,
2013-03-20 19:53:00,34.0,12.2,30.21,West,267,1.0,4.0,40,0.00,,,0.00,WeatherCatV1.10B1784,2013-03-21 00:53:00,
2013-03-20 19:58:00,33.8,12.6,30.21,WNW,286,1.0,5.0,41,0.00,,,0.00,WeatherCatV1.10B1784,2013-03-21 00:58:00,
2013-03-20 20:03:00,33.6,13.0,30.21,West,269,0.0,4.0,42,0.00,,,0.00,WeatherCatV1.10B1784,2013-03-21 01:03:00,
2013-03-20 20:08:00,33.4,12.8,30.22,West,273,0.0,2.0,42,0.00,,,0.00,WeatherCatV1.10B1784,2013-03-21 01:08:00,
2013-03-20 20:13:00,33.2,12.6,30.21,West,273,1.0,3.0,42,0.00,,,0.00,WeatherCatV1.10B1784,2013-03-21 01:13:00,
2013-03-20 20:18:00,32.9,12.9,30.21,WNW,284,0.0,0.0,43,0.00,,,0.00,WeatherCatV1.10B1784,2013-03-21 01:18:00,
2013-03-20 20:23:00,32.6,13.1,30.21,NNW,334,0.0,3.0,44,0.00,,,0.00,WeatherCatV1.10B1784,2013-03-21 01:23:00,
2013-03-20 20:28:00,32.3,12.9,30.21,NW,318,0.0,4.0,44,0.00,,,0.00,WeatherCatV1.10B1784,2013-03-21 01:28:00,
2013-03-20 20:33:00,32.0,13.1,30.21,NNW,329,1.0,2.0,45,0.00,,,0.00,WeatherCatV1.10B1784,2013-03-21 01:33:00,
2013-03-20 20:38:00,31.8,13.4,30.21,NNW,339,0.0,1.0,46,0.00,,,0.00,WeatherCatV1.10B1784,2013-03-21 01:38:00,
2013-03-20 20:43:00,31.6,12.7,30.21,NNW,339,0.0,0.0,45,0.00,,,0.00,WeatherCatV1.10B1784,2013-03-21 01:43:00,
2013-03-20 20:48:00,31.4,13.5,30.20,NNW,339,3.0,3.0,47,0.00,,,0.00,WeatherCatV1.10B1784,2013-03-21 01:48:00,
2013-03-20 20:53:00,31.1,13.3,30.21,NNW,339,1.0,3.0,47,0.00,,,0.00,WeatherCatV1.10B1784,2013-03-21 01:53:00,
2013-03-20 20:58:00,30.8,13.5,30.21,NW,319,2.0,3.0,48,0.00,,,0.00,WeatherCatV1.10B1784,2013-03-21 01:58:00,
2013-03-20 21:03:00,30.7,13.8,30.22,NW,316,2.0,3.0,49,0.00,,,0.00,WeatherCatV1.10B1784,2013-03-21 02:03:00,
2013-03-20 21:08:00,30.6,13.3,30.21,NNW,327,1.0,3.0,48,0.00,,,0.00,WeatherCatV1.10B1784,2013-03-21 02:08:00,
2013-03-20 21:13:00,30.6,13.3,30.21,NW,325,2.0,3.0,48,0.00,,,0.00,WeatherCatV1.10B1784,2013-03-21 02:13:00,
2013-03-20 21:18:00,30.7,13.4,30.21,NNW,327,2.0,3.0,48,0.00,,,0.00,WeatherCatV1.10B1784,2013-03-21 02:18:00,
2013-03-20 21:23:00,30.7,13.8,30.21,NNW,331,2.0,2.0,49,0.00,,,0.00,WeatherCatV1.10B1784,2013-03-21 02:23:00,
2013-03-20 21:28:00,30.6,13.7,30.20,NNW,331,0.0,1.0,49,0.00,,,0.00,WeatherCatV1.10B1784,2013-03-21 02:28:00,
2013-03-20 21:33:00,30.5,13.6,30.20,NNW,331,0.0,1.0,49,0.00,,,0.00,WeatherCatV1.10B1784,2013-03-21 02:33:00,
2013-03-20 21:38:00,30.3,14.4,30.21,NNW,331,0.0,1.0,51,0.00,,,0.00,WeatherCatV1.10B1784,2013-03-21 02:38:00,
2013-03-20 21:43:00,30.2,14.3,30.21,NNW,331,0.0,0.0,51,0.00,,,0.00,WeatherCatV1.10B1784,2013-03-21 02:43:00,
2013-03-20 21:48:00,29.9,14.0,30.20,NNW,331,0.0,0.0,51,0.00,,,0.00,WeatherCatV1.10B1784,2013-03-21 02:48:00,
2013-03-20 21:53:00,29.6,15.0,30.20,NNW,331,0.0,0.0,54,0.00,,,0.00,WeatherCatV1.10B1784,2013-03-21 02:53:00,
2013-03-20 21:58:00,29.0,15.7,30.20,NNW,331,0.0,0.0,57,0.00,,,0.00,WeatherCatV1.10B1784,2013-03-21 02:58:00,
2013-03-20 22:03:00,28.6,14.9,30.20,NNW,331,0.0,0.0,56,0.00,,,0.00,WeatherCatV1.10B1784,2013-03-21 03:03:00,
2013-03-20 22:08:00,28.4,15.1,30.20,NNW,331,0.0,0.0,57,0.00,,,0.00,WeatherCatV1.10B1784,2013-03-21 03:08:00,
2013-03-20 22:13:00,28.2,14.9,30.20,NNW,331,0.0,0.0,57,0.00,,,0.00,WeatherCatV1.10B1784,2013-03-21 03:13:00,
2013-03-20 22:18:00,28.1,15.3,30.21,NNW,331,0.0,0.0,58,0.00,,,0.00,WeatherCatV1.10B1784,2013-03-21 03:18:00,
2013-03-20 22:23:00,28.0,15.5,30.21,NNW,331,0.0,0.0,59,0.00,,,0.00,WeatherCatV1.10B1784,2013-03-21 03:23:00,
2013-03-20 22:28:00,27.8,14.6,30.21,NNW,331,0.0,1.0,57,0.00,,,0.00,WeatherCatV1.10B1784,2013-03-21 03:28:00,
2013-03-20 22:33:00,27.6,14.4,30.21,NNW,331,0.0,0.0,57,0.00,,,0.00,WeatherCatV1.10B1784,2013-03-21 03:33:00,
2013-03-20 22:38:00,27.3,14.9,30.22,NNW,331,0.0,0.0,59,0.00,,,0.00,WeatherCatV1.10B1784,2013-03-21 03:38:00,
2013-03-20 22:43:00,27.1,15.1,30.22,NNW,331,0.0,0.0,60,0.00,,,0.00,WeatherCatV1.10B1784,2013-03-21 03:43:00,
2013-03-20 22:48:00,26.7,13.9,30.22,NNW,331,0.0,0.0,58,0.00,,,0.00,WeatherCatV1.10B1784,2013-03-21 03:48:00,
2013-03-20 22:53:00,26.5,14.9,30.22,NNW,331,0.0,0.0,61,0.00,,,0.00,WeatherCatV1.10B1784,2013-03-21 03:53:00,
2013-03-20 22:58:00,26.2,15.3,30.22,NNW,331,0.0,0.0,63,0.00,,,0.00,WeatherCatV1.10B1784,2013-03-21 03:58:00,
2013-03-20 23:00:00,26.0,15.5,30.22,NNW,331,0.0,0.0,64,0.00,,,0.00,WeatherCatV1.10B1784,2013-03-21 04:00:00,
2013-03-20 23:05:00,25.9,16.1,30.22,NNW,331,0.0,0.0,66,0.00,,,0.00,WeatherCatV1.10B1784,2013-03-21 04:05:00,
2013-03-20 23:06:00,25.9,16.1,30.22,NNW,331,0.0,0.0,66,0.00,,,0.00,WeatherCatV1.10B1784,2013-03-21 04:06:00,
2013-03-20 23:11:00,25.7,15.9,30.22,NNW,331,0.0,0.0,66,0.00,,,0.00,WeatherCatV1.10B1784,2013-03-21 04:11:00,
2013-03-20 23:16:00,25.6,15.5,30.21,NNW,331,0.0,0.0,65,0.00,,,0.00,WeatherCatV1.10B1784,2013-03-21 04:16:00,
2013-03-20 23:21:00,25.4,15.7,30.21,NNW,331,0.0,0.0,66,0.00,,,0.00,WeatherCatV1.10B1784,2013-03-21 04:21:00,
2013-03-20 23:26:00,25.2,15.5,30.21,NNW,331,0.0,0.0,66,0.00,,,0.00,WeatherCatV1.10B1784,2013-03-21 04:26:00,
2013-03-20 23:31:00,25.0,16.9,30.21,NNW,331,0.0,0.0,71,0.00,,,0.00,WeatherCatV1.10B1784,2013-03-21 04:31:00,
2013-03-20 23:36:00,24.8,16.1,30.21,NNW,331,0.0,0.0,69,0.00,,,0.00,WeatherCatV1.10B1784,2013-03-21 04:36:00,
2013-03-20 23:41:00,24.7,16.3,30.20,NNW,331,0.0,0.0,70,0.00,,,0.00,WeatherCatV1.10B1784,2013-03-21 04:41:00,
2013-03-20 23:46:00,24.4,16.4,30.20,NNW,331,0.0,0.0,71,0.00,,,0.00,WeatherCatV1.10B1784,2013-03-21 04:46:00,
2013-03-20 23:51:00,24.3,16.6,30.20,NNW,331,0.0,0.0,72,0.00,,,0.00,WeatherCatV1.10B1784,2013-03-21 04:51:00,
2013-03-20 23:56:00,24.2,16.8,30.20,NNW,331,0.0,0.0,73,0.00,,,0.00,WeatherCatV1.10B1784,2013-03-21 04:56:00,